Terminal Aerodrome Forecast
Issued by NWS Los Angeles, CA

Home | Current Version | Previous Version | Text Only | Print | Product List | Glossary On
Versions: 1 2 3 4 5 6 7 8 9 10 11 12 13
000
FTUS46 KLOX 270500
TAFSMX
TAF
KSMX 270520Z 2706/2806 14004KT P6SM -SHRA SCT050 BKN080 OVC120
     FM271300 VRB03KT P6SM VCSH BKN080 BKN120
     FM271500 VRB03KT P6SM SCT050 BKN120
     FM272000 30010KT P6SM SCT100
     FM280200 VRB03KT P6SM SCT200=

USA.gov is the U.S. government's official web portal to all federal, state and local government web resources and services.